Nathalie — OJLP — position and weather

sailwx.info

Track history (hours):
 
Tides and Currents Weather Stations Pressure Air Temp Water Temp Dewpoint Dewpoint Depression Visibility Wind Speed Wind Dir Waves Ship Positions

Nathalie

Last reported at 2016-Dec-05 11:33 UTC. Time now 2016-Dec-05 12:32 UTC.
Position N 53°40' E 014°31'.

Length 64 m; draft 3.6 m.

Type: Cargo ship. MMSI: 230987660.

Date/timePositionNaut miles runAvg speedWind from/ knotsBaromVisibWave heightAir tempDewpointWater temp
2016-Dec-05 11:33N 53°40' E 014°31'67 7.4
2016-Dec-05 02:31N 54°45' E 014°57'7 7.5
2016-Dec-05 01:34N 54°51' E 015°03'8 7.6
2016-Dec-05 00:34N 54°58' E 015°09'9 9.2
2016-Dec-04 23:33N 55°06' E 015°16'9 9.2
2016-Dec-04 22:33N 55°15' E 015°23'9 9.0
2016-Dec-04 21:33N 55°23' E 015°30'111 9.2
2016-Dec-04 09:26N 57°06' E 016°44'8 9.4
2016-Dec-04 08:33N 57°14' E 016°50'  
2016-Nov-28 06:18N 59°41' E 022°55'6 8.5
2016-Nov-28 05:33N 59°42' E 023°08'8 8.5
2016-Nov-28 04:33N 59°43' E 023°24'9 8.7
2016-Nov-28 03:33N 59°45' E 023°41'9 8.5
2016-Nov-28 02:31N 59°47' E 023°58'30 0.9
2016-Nov-26 17:33N 59°40' E 024°56'9 8.5
2016-Nov-26 16:33N 59°36' E 024°42'8 7.6
2016-Nov-26 15:34N 59°29' E 024°37'2 1.8
2016-Nov-26 14:15N 59°27' E 024°40'0 0.0
2016-Nov-26 13:33N 59°27' E 024°40'0 0.0
2016-Nov-26 12:33N 59°27' E 024°40'0 0.0
2016-Nov-26 11:21N 59°27' E 024°40'0 0.0
2016-Nov-26 10:27N 59°27' E 024°40'0 0.3
2016-Nov-26 09:33N 59°27' E 024°40'35 8.6
2016-Nov-26 05:29N 59°38' E 023°35'8 8.8
2016-Nov-26 04:32N 59°41' E 023°19'10 8.4
2016-Nov-26 03:19N 59°46' E 023°01'7 0.5
2016-Nov-25 13:33N 59°51' E 022°53'8 7.9
2016-Nov-25 12:33N 59°45' E 023°02'10 9.8
2016-Nov-25 11:33N 59°42' E 023°20'  
Track history (hours):
 
Tides and Currents Weather Stations Pressure Air Temp Water Temp Dewpoint Dewpoint Depression Visibility Wind Speed Wind Dir Waves Ship Positions

Nathalie

Last reported at 2016-Dec-05 11:33 UTC. Time now 2016-Dec-05 12:32 UTC.
Position N 53°40' E 014°31'.

Length 64 m; draft 3.6 m.

Type: Cargo ship. MMSI: 230987660.

Date/timePositionNaut miles runAvg speedWind from/ knotsBaromVisibWave heightAir tempDewpointWater temp
2016-Dec-05 11:33N 53°40' E 014°31'67 7.4
2016-Dec-05 02:31N 54°45' E 014°57'7 7.5
2016-Dec-05 01:34N 54°51' E 015°03'8 7.6
2016-Dec-05 00:34N 54°58' E 015°09'9 9.2
2016-Dec-04 23:33N 55°06' E 015°16'9 9.2
2016-Dec-04 22:33N 55°15' E 015°23'9 9.0
2016-Dec-04 21:33N 55°23' E 015°30'111 9.2
2016-Dec-04 09:26N 57°06' E 016°44'8 9.4
2016-Dec-04 08:33N 57°14' E 016°50'  
2016-Nov-28 06:18N 59°41' E 022°55'6 8.5
2016-Nov-28 05:33N 59°42' E 023°08'8 8.5
2016-Nov-28 04:33N 59°43' E 023°24'9 8.7
2016-Nov-28 03:33N 59°45' E 023°41'9 8.5
2016-Nov-28 02:31N 59°47' E 023°58'30 0.9
2016-Nov-26 17:33N 59°40' E 024°56'9 8.5
2016-Nov-26 16:33N 59°36' E 024°42'8 7.6
2016-Nov-26 15:34N 59°29' E 024°37'2 1.8
2016-Nov-26 14:15N 59°27' E 024°40'0 0.0
2016-Nov-26 13:33N 59°27' E 024°40'0 0.0
2016-Nov-26 12:33N 59°27' E 024°40'0 0.0
2016-Nov-26 11:21N 59°27' E 024°40'0 0.0
2016-Nov-26 10:27N 59°27' E 024°40'0 0.3
2016-Nov-26 09:33N 59°27' E 024°40'35 8.6
2016-Nov-26 05:29N 59°38' E 023°35'8 8.8
2016-Nov-26 04:32N 59°41' E 023°19'10 8.4
2016-Nov-26 03:19N 59°46' E 023°01'7 0.5
2016-Nov-25 13:33N 59°51' E 022°53'8 7.9
2016-Nov-25 12:33N 59°45' E 023°02'10 9.8
2016-Nov-25 11:33N 59°42' E 023°20'  

Dump ship's entire track history